sensor_id;sensor_type;location;lat;lon;timestamp;P1;durP1;ratioP1;P2;durP2;ratioP2
52432;SDS011;38352;53.244;6.594;2024-01-15T00:00:05;5.93;;;1.60;;
52432;SDS011;38352;53.244;6.594;2024-01-15T00:02:31;9.02;;;2.13;;
52432;SDS011;38352;53.244;6.594;2024-01-15T00:04:57;8.43;;;1.60;;
52432;SDS011;38352;53.244;6.594;2024-01-15T00:07:23;10.57;;;1.70;;
52432;SDS011;38352;53.244;6.594;2024-01-15T00:09:49;6.32;;;1.10;;
52432;SDS011;38352;53.244;6.594;2024-01-15T00:12:15;7.35;;;1.67;;
52432;SDS011;38352;53.244;6.594;2024-01-15T00:14:41;7.70;;;1.55;;
52432;SDS011;38352;53.244;6.594;2024-01-15T00:17:08;4.60;;;0.98;;
52432;SDS011;38352;53.244;6.594;2024-01-15T00:19:34;5.88;;;1.08;;
52432;SDS011;38352;53.244;6.594;2024-01-15T00:22:00;2.97;;;0.80;;
52432;SDS011;38352;53.244;6.594;2024-01-15T00:24:26;7.70;;;1.95;;
52432;SDS011;38352;53.244;6.594;2024-01-15T00:26:52;3.30;;;0.90;;
52432;SDS011;38352;53.244;6.594;2024-01-15T00:29:18;1.27;;;0.60;;
52432;SDS011;38352;53.244;6.594;2024-01-15T00:31:44;5.20;;;1.27;;
52432;SDS011;38352;53.244;6.594;2024-01-15T00:34:10;5.70;;;1.17;;
52432;SDS011;38352;53.244;6.594;2024-01-15T00:36:37;4.82;;;1.20;;
52432;SDS011;38352;53.244;6.594;2024-01-15T00:39:03;5.45;;;0.98;;
52432;SDS011;38352;53.244;6.594;2024-01-15T00:41:30;5.88;;;1.10;;
52432;SDS011;38352;53.244;6.594;2024-01-15T00:43:56;5.05;;;1.13;;
52432;SDS011;38352;53.244;6.594;2024-01-15T00:46:22;7.47;;;1.08;;
52432;SDS011;38352;53.244;6.594;2024-01-15T00:48:48;8.13;;;1.38;;
52432;SDS011;38352;53.244;6.594;2024-01-15T00:51:14;10.88;;;1.70;;
52432;SDS011;38352;53.244;6.594;2024-01-15T00:53:40;10.48;;;1.60;;
52432;SDS011;38352;53.244;6.594;2024-01-15T00:56:07;5.50;;;1.25;;
52432;SDS011;38352;53.244;6.594;2024-01-15T00:58:33;8.65;;;1.35;;
52432;SDS011;38352;53.244;6.594;2024-01-15T01:00:59;3.65;;;1.33;;
52432;SDS011;38352;53.244;6.594;2024-01-15T01:03:25;12.93;;;1.83;;
52432;SDS011;38352;53.244;6.594;2024-01-15T01:05:51;10.35;;;1.90;;
52432;SDS011;38352;53.244;6.594;2024-01-15T01:08:17;12.55;;;2.47;;
52432;SDS011;38352;53.244;6.594;2024-01-15T01:10:43;7.65;;;1.83;;
52432;SDS011;38352;53.244;6.594;2024-01-15T01:13:09;25.33;;;2.60;;
52432;SDS011;38352;53.244;6.594;2024-01-15T01:15:35;13.35;;;2.42;;
52432;SDS011;38352;53.244;6.594;2024-01-15T01:18:02;12.98;;;2.25;;
52432;SDS011;38352;53.244;6.594;2024-01-15T01:20:28;13.27;;;3.42;;
52432;SDS011;38352;53.244;6.594;2024-01-15T01:22:55;9.80;;;2.42;;
52432;SDS011;38352;53.244;6.594;2024-01-15T01:25:21;14.45;;;2.97;;
52432;SDS011;38352;53.244;6.594;2024-01-15T01:27:47;11.40;;;2.85;;
52432;SDS011;38352;53.244;6.594;2024-01-15T01:30:13;14.40;;;2.53;;
52432;SDS011;38352;53.244;6.594;2024-01-15T01:32:39;13.45;;;2.13;;
52432;SDS011;38352;53.244;6.594;2024-01-15T01:35:05;17.52;;;2.35;;
52432;SDS011;38352;53.244;6.594;2024-01-15T01:37:31;12.82;;;3.78;;
52432;SDS011;38352;53.244;6.594;2024-01-15T01:39:59;11.40;;;2.15;;
52432;SDS011;38352;53.244;6.594;2024-01-15T01:42:25;7.57;;;2.42;;
52432;SDS011;38352;53.244;6.594;2024-01-15T01:44:51;20.38;;;3.25;;
52432;SDS011;38352;53.244;6.594;2024-01-15T01:47:17;11.40;;;2.00;;
52432;SDS011;38352;53.244;6.594;2024-01-15T01:49:44;9.52;;;2.75;;
52432;SDS011;38352;53.244;6.594;2024-01-15T01:52:11;16.98;;;3.25;;
52432;SDS011;38352;53.244;6.594;2024-01-15T01:54:37;9.88;;;2.53;;
52432;SDS011;38352;53.244;6.594;2024-01-15T01:57:03;14.57;;;2.60;;
52432;SDS011;38352;53.244;6.594;2024-01-15T01:59:30;11.57;;;2.42;;
52432;SDS011;38352;53.244;6.594;2024-01-15T02:01:57;11.43;;;2.65;;
52432;SDS011;38352;53.244;6.594;2024-01-15T02:04:25;18.80;;;3.08;;
52432;SDS011;38352;53.244;6.594;2024-01-15T02:06:52;12.77;;;2.10;;
52432;SDS011;38352;53.244;6.594;2024-01-15T02:09:18;9.50;;;2.05;;
52432;SDS011;38352;53.244;6.594;2024-01-15T02:11:47;16.88;;;2.17;;
52432;SDS011;38352;53.244;6.594;2024-01-15T02:14:13;9.65;;;1.70;;
52432;SDS011;38352;53.244;6.594;2024-01-15T02:16:40;13.23;;;1.90;;
52432;SDS011;38352;53.244;6.594;2024-01-15T02:19:06;10.52;;;2.40;;
52432;SDS011;38352;53.244;6.594;2024-01-15T02:21:32;8.82;;;1.85;;
52432;SDS011;38352;53.244;6.594;2024-01-15T02:23:58;14.98;;;2.88;;
52432;SDS011;38352;53.244;6.594;2024-01-15T02:26:25;14.25;;;2.97;;
52432;SDS011;38352;53.244;6.594;2024-01-15T02:28:51;17.95;;;2.45;;
52432;SDS011;38352;53.244;6.594;2024-01-15T02:31:18;17.10;;;2.40;;
52432;SDS011;38352;53.244;6.594;2024-01-15T02:33:44;14.20;;;2.45;;
52432;SDS011;38352;53.244;6.594;2024-01-15T02:36:11;10.82;;;2.50;;
52432;SDS011;38352;53.244;6.594;2024-01-15T02:38:37;9.10;;;1.77;;
52432;SDS011;38352;53.244;6.594;2024-01-15T02:41:03;3.50;;;0.95;;
52432;SDS011;38352;53.244;6.594;2024-01-15T02:43:29;5.25;;;1.02;;
52432;SDS011;38352;53.244;6.594;2024-01-15T02:45:55;4.60;;;1.00;;
52432;SDS011;38352;53.244;6.594;2024-01-15T02:48:21;6.85;;;1.10;;
52432;SDS011;38352;53.244;6.594;2024-01-15T02:50:48;5.05;;;1.25;;
52432;SDS011;38352;53.244;6.594;2024-01-15T02:53:14;7.05;;;1.10;;
52432;SDS011;38352;53.244;6.594;2024-01-15T02:55:40;6.57;;;1.10;;
52432;SDS011;38352;53.244;6.594;2024-01-15T02:58:06;4.13;;;0.60;;
52432;SDS011;38352;53.244;6.594;2024-01-15T03:00:33;2.72;;;0.50;;
52432;SDS011;38352;53.244;6.594;2024-01-15T03:02:59;4.05;;;0.85;;
52432;SDS011;38352;53.244;6.594;2024-01-15T03:05:25;3.97;;;1.15;;
52432;SDS011;38352;53.244;6.594;2024-01-15T03:07:51;11.27;;;1.60;;
52432;SDS011;38352;53.244;6.594;2024-01-15T03:10:17;8.43;;;1.25;;
52432;SDS011;38352;53.244;6.594;2024-01-15T03:12:43;3.72;;;0.93;;
52432;SDS011;38352;53.244;6.594;2024-01-15T03:15:09;11.40;;;1.30;;
52432;SDS011;38352;53.244;6.594;2024-01-15T03:17:35;8.93;;;1.38;;
52432;SDS011;38352;53.244;6.594;2024-01-15T03:20:01;10.65;;;2.08;;
52432;SDS011;38352;53.244;6.594;2024-01-15T03:22:28;13.93;;;1.92;;
52432;SDS011;38352;53.244;6.594;2024-01-15T03:24:54;10.52;;;1.70;;
52432;SDS011;38352;53.244;6.594;2024-01-15T03:27:20;13.43;;;2.20;;
52432;SDS011;38352;53.244;6.594;2024-01-15T03:29:46;10.55;;;1.90;;
52432;SDS011;38352;53.244;6.594;2024-01-15T03:32:12;10.85;;;1.92;;
52432;SDS011;38352;53.244;6.594;2024-01-15T03:34:38;18.25;;;2.30;;
52432;SDS011;38352;53.244;6.594;2024-01-15T03:37:04;14.43;;;3.08;;
52432;SDS011;38352;53.244;6.594;2024-01-15T03:39:30;14.82;;;2.20;;
52432;SDS011;38352;53.244;6.594;2024-01-15T03:41:56;9.27;;;2.42;;
52432;SDS011;38352;53.244;6.594;2024-01-15T03:44:23;10.48;;;2.25;;
52432;SDS011;38352;53.244;6.594;2024-01-15T03:46:50;17.27;;;2.70;;
52432;SDS011;38352;53.244;6.594;2024-01-15T03:49:16;10.93;;;2.40;;
52432;SDS011;38352;53.244;6.594;2024-01-15T03:51:42;17.17;;;3.58;;
52432;SDS011;38352;53.244;6.594;2024-01-15T03:54:08;13.65;;;2.42;;
52432;SDS011;38352;53.244;6.594;2024-01-15T03:56:34;10.63;;;1.90;;
52432;SDS011;38352;53.244;6.594;2024-01-15T03:59:00;11.77;;;2.15;;
52432;SDS011;38352;53.244;6.594;2024-01-15T04:01:26;17.17;;;2.40;;
52432;SDS011;38352;53.244;6.594;2024-01-15T04:03:52;11.07;;;2.53;;
52432;SDS011;38352;53.244;6.594;2024-01-15T04:06:18;11.00;;;1.90;;
52432;SDS011;38352;53.244;6.594;2024-01-15T04:08:44;9.32;;;1.75;;
52432;SDS011;38352;53.244;6.594;2024-01-15T04:11:11;9.10;;;2.40;;
52432;SDS011;38352;53.244;6.594;2024-01-15T04:13:37;9.25;;;1.70;;
52432;SDS011;38352;53.244;6.594;2024-01-15T04:16:03;8.25;;;1.45;;
52432;SDS011;38352;53.244;6.594;2024-01-15T04:18:29;8.05;;;1.98;;
52432;SDS011;38352;53.244;6.594;2024-01-15T04:20:55;6.07;;;1.20;;
52432;SDS011;38352;53.244;6.594;2024-01-15T04:23:21;9.88;;;1.30;;
52432;SDS011;38352;53.244;6.594;2024-01-15T04:25:47;9.52;;;2.00;;
52432;SDS011;38352;53.244;6.594;2024-01-15T04:28:13;7.60;;;1.85;;
52432;SDS011;38352;53.244;6.594;2024-01-15T04:30:40;6.95;;;1.45;;
52432;SDS011;38352;53.244;6.594;2024-01-15T04:33:06;6.95;;;2.05;;
52432;SDS011;38352;53.244;6.594;2024-01-15T04:35:32;8.13;;;1.60;;
52432;SDS011;38352;53.244;6.594;2024-01-15T04:37:58;7.88;;;2.30;;
52432;SDS011;38352;53.244;6.594;2024-01-15T04:40:25;6.32;;;1.42;;
52432;SDS011;38352;53.244;6.594;2024-01-15T04:42:53;4.32;;;1.33;;
52432;SDS011;38352;53.244;6.594;2024-01-15T04:45:19;7.28;;;1.50;;
52432;SDS011;38352;53.244;6.594;2024-01-15T04:47:47;5.65;;;1.48;;
52432;SDS011;38352;53.244;6.594;2024-01-15T04:50:14;4.72;;;1.05;;
52432;SDS011;38352;53.244;6.594;2024-01-15T04:52:40;2.67;;;0.70;;
52432;SDS011;38352;53.244;6.594;2024-01-15T04:55:06;4.53;;;1.25;;
52432;SDS011;38352;53.244;6.594;2024-01-15T04:57:32;4.45;;;0.75;;
52432;SDS011;38352;53.244;6.594;2024-01-15T04:59:58;5.00;;;1.23;;
52432;SDS011;38352;53.244;6.594;2024-01-15T05:02:24;9.95;;;1.75;;
52432;SDS011;38352;53.244;6.594;2024-01-15T05:04:50;6.55;;;1.58;;
52432;SDS011;38352;53.244;6.594;2024-01-15T05:07:17;5.25;;;0.77;;
52432;SDS011;38352;53.244;6.594;2024-01-15T05:09:43;7.80;;;0.90;;
52432;SDS011;38352;53.244;6.594;2024-01-15T05:12:09;6.80;;;1.10;;
52432;SDS011;38352;53.244;6.594;2024-01-15T05:14:35;6.45;;;1.10;;
52432;SDS011;38352;53.244;6.594;2024-01-15T05:17:01;6.55;;;1.50;;
52432;SDS011;38352;53.244;6.594;2024-01-15T05:19:27;7.75;;;1.20;;
52432;SDS011;38352;53.244;6.594;2024-01-15T05:21:53;6.32;;;1.40;;
52432;SDS011;38352;53.244;6.594;2024-01-15T05:24:19;10.57;;;1.83;;
52432;SDS011;38352;53.244;6.594;2024-01-15T05:26:45;9.07;;;1.88;;
52432;SDS011;38352;53.244;6.594;2024-01-15T05:29:11;5.53;;;1.42;;
52432;SDS011;38352;53.244;6.594;2024-01-15T05:31:38;12.70;;;1.63;;
52432;SDS011;38352;53.244;6.594;2024-01-15T05:34:04;15.85;;;1.75;;
52432;SDS011;38352;53.244;6.594;2024-01-15T05:36:30;7.72;;;2.08;;
52432;SDS011;38352;53.244;6.594;2024-01-15T05:38:56;5.90;;;1.67;;
52432;SDS011;38352;53.244;6.594;2024-01-15T05:41:22;11.27;;;1.88;;
52432;SDS011;38352;53.244;6.594;2024-01-15T05:43:48;10.20;;;1.67;;
52432;SDS011;38352;53.244;6.594;2024-01-15T05:46:14;8.55;;;2.15;;
52432;SDS011;38352;53.244;6.594;2024-01-15T05:48:40;9.70;;;1.50;;
52432;SDS011;38352;53.244;6.594;2024-01-15T05:51:06;5.82;;;1.80;;
52432;SDS011;38352;53.244;6.594;2024-01-15T05:53:32;11.02;;;1.95;;
52432;SDS011;38352;53.244;6.594;2024-01-15T05:55:58;11.93;;;2.15;;
52432;SDS011;38352;53.244;6.594;2024-01-15T05:58:26;10.27;;;2.15;;
52432;SDS011;38352;53.244;6.594;2024-01-15T06:00:52;8.32;;;1.83;;
52432;SDS011;38352;53.244;6.594;2024-01-15T06:03:18;11.23;;;1.63;;
52432;SDS011;38352;53.244;6.594;2024-01-15T06:05:44;9.60;;;1.73;;
52432;SDS011;38352;53.244;6.594;2024-01-15T06:08:10;8.65;;;1.73;;
52432;SDS011;38352;53.244;6.594;2024-01-15T06:10:36;13.90;;;1.80;;
52432;SDS011;38352;53.244;6.594;2024-01-15T06:13:02;9.90;;;1.88;;
52432;SDS011;38352;53.244;6.594;2024-01-15T06:15:28;9.60;;;2.20;;
52432;SDS011;38352;53.244;6.594;2024-01-15T06:17:54;10.50;;;2.30;;
52432;SDS011;38352;53.244;6.594;2024-01-15T06:20:20;10.48;;;2.35;;
52432;SDS011;38352;53.244;6.594;2024-01-15T06:22:46;11.40;;;1.70;;
52432;SDS011;38352;53.244;6.594;2024-01-15T06:25:13;10.30;;;1.95;;
52432;SDS011;38352;53.244;6.594;2024-01-15T06:27:39;9.73;;;2.60;;
52432;SDS011;38352;53.244;6.594;2024-01-15T06:30:05;11.90;;;1.98;;
52432;SDS011;38352;53.244;6.594;2024-01-15T06:32:31;13.93;;;2.28;;
52432;SDS011;38352;53.244;6.594;2024-01-15T06:34:57;9.02;;;2.78;;
52432;SDS011;38352;53.244;6.594;2024-01-15T06:37:23;9.05;;;2.25;;
52432;SDS011;38352;53.244;6.594;2024-01-15T06:39:50;12.40;;;3.20;;
52432;SDS011;38352;53.244;6.594;2024-01-15T06:42:16;10.82;;;1.95;;
52432;SDS011;38352;53.244;6.594;2024-01-15T06:44:42;13.05;;;2.05;;
52432;SDS011;38352;53.244;6.594;2024-01-15T06:47:08;14.65;;;2.35;;
52432;SDS011;38352;53.244;6.594;2024-01-15T06:49:34;12.15;;;2.67;;
52432;SDS011;38352;53.244;6.594;2024-01-15T06:52:00;14.77;;;2.22;;
52432;SDS011;38352;53.244;6.594;2024-01-15T06:54:26;11.80;;;1.98;;
52432;SDS011;38352;53.244;6.594;2024-01-15T06:56:52;14.00;;;3.05;;
52432;SDS011;38352;53.244;6.594;2024-01-15T06:59:18;10.88;;;3.03;;
52432;SDS011;38352;53.244;6.594;2024-01-15T07:01:44;13.70;;;2.83;;
52432;SDS011;38352;53.244;6.594;2024-01-15T07:04:12;16.05;;;2.42;;
52432;SDS011;38352;53.244;6.594;2024-01-15T07:06:38;10.00;;;1.75;;
52432;SDS011;38352;53.244;6.594;2024-01-15T07:09:04;10.20;;;1.92;;
52432;SDS011;38352;53.244;6.594;2024-01-15T07:11:31;5.38;;;1.30;;
52432;SDS011;38352;53.244;6.594;2024-01-15T07:13:57;10.82;;;1.60;;
52432;SDS011;38352;53.244;6.594;2024-01-15T07:16:23;5.68;;;1.25;;
52432;SDS011;38352;53.244;6.594;2024-01-15T07:18:49;7.03;;;1.30;;
52432;SDS011;38352;53.244;6.594;2024-01-15T07:21:15;9.73;;;1.30;;
52432;SDS011;38352;53.244;6.594;2024-01-15T07:23:41;6.10;;;1.13;;
52432;SDS011;38352;53.244;6.594;2024-01-15T07:26:07;8.07;;;1.38;;
52432;SDS011;38352;53.244;6.594;2024-01-15T07:28:34;5.35;;;1.35;;
52432;SDS011;38352;53.244;6.594;2024-01-15T07:31:00;7.80;;;1.17;;
52432;SDS011;38352;53.244;6.594;2024-01-15T07:33:26;8.32;;;2.40;;
52432;SDS011;38352;53.244;6.594;2024-01-15T07:35:52;10.93;;;2.00;;
52432;SDS011;38352;53.244;6.594;2024-01-15T07:38:18;11.88;;;1.75;;
52432;SDS011;38352;53.244;6.594;2024-01-15T07:40:45;9.50;;;1.67;;
52432;SDS011;38352;53.244;6.594;2024-01-15T07:43:14;7.32;;;1.45;;
52432;SDS011;38352;53.244;6.594;2024-01-15T07:45:40;7.35;;;1.60;;
52432;SDS011;38352;53.244;6.594;2024-01-15T07:48:06;15.77;;;2.33;;
52432;SDS011;38352;53.244;6.594;2024-01-15T07:50:32;3.85;;;1.33;;
52432;SDS011;38352;53.244;6.594;2024-01-15T07:52:58;9.00;;;1.58;;
52432;SDS011;38352;53.244;6.594;2024-01-15T07:55:24;4.75;;;1.20;;
52432;SDS011;38352;53.244;6.594;2024-01-15T07:57:50;7.95;;;2.00;;
52432;SDS011;38352;53.244;6.594;2024-01-15T08:00:18;10.73;;;1.90;;
52432;SDS011;38352;53.244;6.594;2024-01-15T08:02:44;8.52;;;1.30;;
52432;SDS011;38352;53.244;6.594;2024-01-15T08:05:11;7.00;;;2.20;;
52432;SDS011;38352;53.244;6.594;2024-01-15T08:07:37;6.53;;;1.48;;
52432;SDS011;38352;53.244;6.594;2024-01-15T08:10:03;9.07;;;1.63;;
52432;SDS011;38352;53.244;6.594;2024-01-15T08:12:29;6.20;;;1.63;;
52432;SDS011;38352;53.244;6.594;2024-01-15T08:14:55;13.20;;;2.10;;
52432;SDS011;38352;53.244;6.594;2024-01-15T08:17:21;7.63;;;1.85;;
52432;SDS011;38352;53.244;6.594;2024-01-15T08:19:48;13.85;;;2.20;;
52432;SDS011;38352;53.244;6.594;2024-01-15T08:22:14;10.57;;;1.52;;
52432;SDS011;38352;53.244;6.594;2024-01-15T08:24:40;10.82;;;1.88;;
52432;SDS011;38352;53.244;6.594;2024-01-15T08:27:06;12.10;;;1.85;;
52432;SDS011;38352;53.244;6.594;2024-01-15T08:29:32;4.32;;;1.70;;
52432;SDS011;38352;53.244;6.594;2024-01-15T08:32:00;9.27;;;1.70;;
52432;SDS011;38352;53.244;6.594;2024-01-15T08:34:26;15.55;;;1.58;;
52432;SDS011;38352;53.244;6.594;2024-01-15T08:36:52;12.93;;;2.05;;
52432;SDS011;38352;53.244;6.594;2024-01-15T08:39:18;12.88;;;1.75;;
52432;SDS011;38352;53.244;6.594;2024-01-15T08:41:44;16.80;;;1.83;;
52432;SDS011;38352;53.244;6.594;2024-01-15T08:44:11;8.23;;;1.45;;
52432;SDS011;38352;53.244;6.594;2024-01-15T08:46:38;7.60;;;2.03;;
52432;SDS011;38352;53.244;6.594;2024-01-15T08:49:04;6.93;;;1.42;;
52432;SDS011;38352;53.244;6.594;2024-01-15T08:51:31;7.20;;;1.45;;
52432;SDS011;38352;53.244;6.594;2024-01-15T08:53:57;8.38;;;1.70;;
52432;SDS011;38352;53.244;6.594;2024-01-15T08:56:23;6.18;;;1.30;;
52432;SDS011;38352;53.244;6.594;2024-01-15T08:58:49;6.35;;;1.55;;
52432;SDS011;38352;53.244;6.594;2024-01-15T09:01:15;5.90;;;2.13;;
52432;SDS011;38352;53.244;6.594;2024-01-15T09:03:41;5.63;;;1.45;;
52432;SDS011;38352;53.244;6.594;2024-01-15T09:06:07;4.30;;;1.77;;
52432;SDS011;38352;53.244;6.594;2024-01-15T09:08:34;5.47;;;1.10;;
52432;SDS011;38352;53.244;6.594;2024-01-15T09:11:01;3.58;;;1.13;;
52432;SDS011;38352;53.244;6.594;2024-01-15T09:13:28;3.63;;;1.15;;
52432;SDS011;38352;53.244;6.594;2024-01-15T09:15:55;6.93;;;1.77;;
52432;SDS011;38352;53.244;6.594;2024-01-15T09:18:21;6.10;;;1.80;;
52432;SDS011;38352;53.244;6.594;2024-01-15T09:20:47;10.02;;;1.90;;
52432;SDS011;38352;53.244;6.594;2024-01-15T09:23:13;9.38;;;2.25;;
52432;SDS011;38352;53.244;6.594;2024-01-15T09:25:39;7.88;;;1.85;;
52432;SDS011;38352;53.244;6.594;2024-01-15T09:28:05;10.30;;;1.58;;
52432;SDS011;38352;53.244;6.594;2024-01-15T09:30:32;5.25;;;1.27;;
52432;SDS011;38352;53.244;6.594;2024-01-15T09:32:58;8.20;;;1.20;;
52432;SDS011;38352;53.244;6.594;2024-01-15T09:35:24;7.35;;;1.40;;
52432;SDS011;38352;53.244;6.594;2024-01-15T09:37:50;7.90;;;1.30;;
52432;SDS011;38352;53.244;6.594;2024-01-15T09:40:16;7.03;;;1.20;;
52432;SDS011;38352;53.244;6.594;2024-01-15T09:42:43;8.05;;;1.60;;
52432;SDS011;38352;53.244;6.594;2024-01-15T09:45:10;7.25;;;1.63;;
52432;SDS011;38352;53.244;6.594;2024-01-15T09:47:37;6.75;;;1.52;;
52432;SDS011;38352;53.244;6.594;2024-01-15T09:50:03;8.98;;;1.42;;
52432;SDS011;38352;53.244;6.594;2024-01-15T09:52:30;10.05;;;1.45;;
52432;SDS011;38352;53.244;6.594;2024-01-15T09:54:57;8.95;;;1.63;;
52432;SDS011;38352;53.244;6.594;2024-01-15T09:57:24;7.57;;;1.42;;
52432;SDS011;38352;53.244;6.594;2024-01-15T09:59:50;21.70;;;2.90;;
52432;SDS011;38352;53.244;6.594;2024-01-15T10:02:18;6.40;;;2.15;;
52432;SDS011;38352;53.244;6.594;2024-01-15T10:04:44;7.05;;;1.50;;
52432;SDS011;38352;53.244;6.594;2024-01-15T10:07:12;11.50;;;1.85;;
52432;SDS011;38352;53.244;6.594;2024-01-15T10:09:41;7.45;;;2.00;;
52432;SDS011;38352;53.244;6.594;2024-01-15T10:12:08;7.70;;;1.67;;
52432;SDS011;38352;53.244;6.594;2024-01-15T10:14:35;10.45;;;2.30;;
52432;SDS011;38352;53.244;6.594;2024-01-15T10:17:03;8.68;;;1.55;;
52432;SDS011;38352;53.244;6.594;2024-01-15T10:19:38;8.60;;;1.83;;
52432;SDS011;38352;53.244;6.594;2024-01-15T10:22:07;11.00;;;1.60;;
52432;SDS011;38352;53.244;6.594;2024-01-15T10:24:34;10.93;;;1.77;;
52432;SDS011;38352;53.244;6.594;2024-01-15T10:27:07;8.27;;;1.83;;
52432;SDS011;38352;53.244;6.594;2024-01-15T10:29:34;6.07;;;1.40;;
52432;SDS011;38352;53.244;6.594;2024-01-15T10:32:00;9.13;;;2.05;;
52432;SDS011;38352;53.244;6.594;2024-01-15T10:34:27;6.07;;;1.55;;
52432;SDS011;38352;53.244;6.594;2024-01-15T10:36:53;9.70;;;2.00;;
52432;SDS011;38352;53.244;6.594;2024-01-15T10:39:23;9.88;;;1.83;;
52432;SDS011;38352;53.244;6.594;2024-01-15T10:41:49;8.25;;;2.63;;
52432;SDS011;38352;53.244;6.594;2024-01-15T10:44:18;6.97;;;1.65;;
52432;SDS011;38352;53.244;6.594;2024-01-15T10:46:45;8.23;;;1.40;;
52432;SDS011;38352;53.244;6.594;2024-01-15T10:49:12;7.35;;;1.83;;
52432;SDS011;38352;53.244;6.594;2024-01-15T10:51:38;8.85;;;1.27;;
52432;SDS011;38352;53.244;6.594;2024-01-15T10:54:04;2.78;;;0.70;;
52432;SDS011;38352;53.244;6.594;2024-01-15T10:56:31;5.18;;;0.90;;
52432;SDS011;38352;53.244;6.594;2024-01-15T10:59:00;2.13;;;0.40;;
52432;SDS011;38352;53.244;6.594;2024-01-15T11:01:26;1.17;;;0.52;;
52432;SDS011;38352;53.244;6.594;2024-01-15T11:03:54;2.15;;;0.57;;
52432;SDS011;38352;53.244;6.594;2024-01-15T11:06:22;1.55;;;0.57;;
52432;SDS011;38352;53.244;6.594;2024-01-15T11:08:49;7.45;;;0.73;;
52432;SDS011;38352;53.244;6.594;2024-01-15T11:11:16;4.10;;;0.90;;
52432;SDS011;38352;53.244;6.594;2024-01-15T11:13:43;3.65;;;0.70;;
52432;SDS011;38352;53.244;6.594;2024-01-15T11:16:13;2.80;;;0.80;;
52432;SDS011;38352;53.244;6.594;2024-01-15T11:18:48;4.10;;;0.70;;
52432;SDS011;38352;53.244;6.594;2024-01-15T11:21:27;3.03;;;0.60;;
52432;SDS011;38352;53.244;6.594;2024-01-15T11:24:01;2.63;;;0.88;;
52432;SDS011;38352;53.244;6.594;2024-01-15T11:26:37;2.97;;;0.80;;
52432;SDS011;38352;53.244;6.594;2024-01-15T11:29:04;6.15;;;1.10;;
52432;SDS011;38352;53.244;6.594;2024-01-15T11:34:09;4.50;;;0.90;;
52432;SDS011;38352;53.244;6.594;2024-01-15T11:41:59;2.42;;;0.50;;
52432;SDS011;38352;53.244;6.594;2024-01-15T11:44:26;3.05;;;0.60;;
52432;SDS011;38352;53.244;6.594;2024-01-15T11:47:02;10.85;;;0.70;;
52432;SDS011;38352;53.244;6.594;2024-01-15T11:52:04;1.60;;;0.60;;
52432;SDS011;38352;53.244;6.594;2024-01-15T11:54:31;4.20;;;0.90;;
52432;SDS011;38352;53.244;6.594;2024-01-15T11:57:00;6.45;;;0.77;;
52432;SDS011;38352;53.244;6.594;2024-01-15T11:59:27;1.13;;;0.60;;
52432;SDS011;38352;53.244;6.594;2024-01-15T12:01:54;2.92;;;0.35;;
52432;SDS011;38352;53.244;6.594;2024-01-15T12:04:20;1.83;;;0.40;;
52432;SDS011;38352;53.244;6.594;2024-01-15T12:06:46;2.60;;;0.60;;
52432;SDS011;38352;53.244;6.594;2024-01-15T12:09:12;4.60;;;0.88;;
52432;SDS011;38352;53.244;6.594;2024-01-15T12:11:39;3.35;;;0.88;;
52432;SDS011;38352;53.244;6.594;2024-01-15T12:14:08;2.95;;;0.80;;
52432;SDS011;38352;53.244;6.594;2024-01-15T12:16:34;4.22;;;0.90;;
52432;SDS011;38352;53.244;6.594;2024-01-15T12:19:00;2.10;;;0.73;;
52432;SDS011;38352;53.244;6.594;2024-01-15T12:21:27;7.68;;;1.02;;
52432;SDS011;38352;53.244;6.594;2024-01-15T12:23:55;5.70;;;1.40;;
52432;SDS011;38352;53.244;6.594;2024-01-15T12:26:21;9.15;;;1.17;;
52432;SDS011;38352;53.244;6.594;2024-01-15T12:28:49;5.78;;;1.08;;
52432;SDS011;38352;53.244;6.594;2024-01-15T12:31:16;6.47;;;1.40;;
52432;SDS011;38352;53.244;6.594;2024-01-15T12:33:42;8.75;;;1.42;;
52432;SDS011;38352;53.244;6.594;2024-01-15T12:36:08;6.30;;;1.67;;
52432;SDS011;38352;53.244;6.594;2024-01-15T12:38:34;9.07;;;1.65;;
52432;SDS011;38352;53.244;6.594;2024-01-15T12:41:00;3.88;;;1.02;;
52432;SDS011;38352;53.244;6.594;2024-01-15T12:43:26;6.63;;;1.40;;
52432;SDS011;38352;53.244;6.594;2024-01-15T12:45:53;9.02;;;1.92;;
52432;SDS011;38352;53.244;6.594;2024-01-15T12:48:19;5.10;;;1.00;;
52432;SDS011;38352;53.244;6.594;2024-01-15T12:50:46;7.60;;;2.13;;
52432;SDS011;38352;53.244;6.594;2024-01-15T12:53:12;5.75;;;1.63;;
52432;SDS011;38352;53.244;6.594;2024-01-15T12:55:38;6.25;;;1.55;;
52432;SDS011;38352;53.244;6.594;2024-01-15T12:58:04;8.52;;;1.45;;
52432;SDS011;38352;53.244;6.594;2024-01-15T13:00:30;7.00;;;1.70;;
52432;SDS011;38352;53.244;6.594;2024-01-15T13:02:57;7.70;;;1.40;;
52432;SDS011;38352;53.244;6.594;2024-01-15T13:05:23;8.93;;;1.77;;
52432;SDS011;38352;53.244;6.594;2024-01-15T13:07:49;8.45;;;1.33;;
52432;SDS011;38352;53.244;6.594;2024-01-15T13:10:15;8.52;;;1.73;;
52432;SDS011;38352;53.244;6.594;2024-01-15T13:12:41;10.25;;;1.88;;
52432;SDS011;38352;53.244;6.594;2024-01-15T13:15:07;11.07;;;1.52;;
52432;SDS011;38352;53.244;6.594;2024-01-15T13:17:37;6.40;;;1.63;;
52432;SDS011;38352;53.244;6.594;2024-01-15T13:20:04;2.85;;;0.98;;
52432;SDS011;38352;53.244;6.594;2024-01-15T13:22:30;12.18;;;2.17;;
52432;SDS011;38352;53.244;6.594;2024-01-15T13:24:57;10.10;;;1.70;;
52432;SDS011;38352;53.244;6.594;2024-01-15T13:27:24;6.93;;;1.60;;
52432;SDS011;38352;53.244;6.594;2024-01-15T13:29:50;5.20;;;1.88;;
52432;SDS011;38352;53.244;6.594;2024-01-15T13:32:23;11.93;;;2.00;;
52432;SDS011;38352;53.244;6.594;2024-01-15T13:34:53;10.25;;;2.78;;
52432;SDS011;38352;53.244;6.594;2024-01-15T13:37:20;6.78;;;1.67;;
52432;SDS011;38352;53.244;6.594;2024-01-15T13:39:46;5.28;;;1.88;;
52432;SDS011;38352;53.244;6.594;2024-01-15T13:42:12;9.38;;;1.50;;
52432;SDS011;38352;53.244;6.594;2024-01-15T13:44:39;10.13;;;1.67;;
52432;SDS011;38352;53.244;6.594;2024-01-15T13:47:06;4.88;;;1.23;;
52432;SDS011;38352;53.244;6.594;2024-01-15T13:49:32;4.18;;;0.98;;
52432;SDS011;38352;53.244;6.594;2024-01-15T13:51:59;5.53;;;1.20;;
52432;SDS011;38352;53.244;6.594;2024-01-15T13:54:25;2.55;;;0.73;;
52432;SDS011;38352;53.244;6.594;2024-01-15T13:56:51;7.30;;;1.10;;
52432;SDS011;38352;53.244;6.594;2024-01-15T13:59:17;8.88;;;1.90;;
52432;SDS011;38352;53.244;6.594;2024-01-15T14:01:43;5.90;;;1.13;;
52432;SDS011;38352;53.244;6.594;2024-01-15T14:04:09;4.22;;;1.30;;
52432;SDS011;38352;53.244;6.594;2024-01-15T14:06:35;11.20;;;1.83;;
52432;SDS011;38352;53.244;6.594;2024-01-15T14:09:01;11.63;;;1.70;;
52432;SDS011;38352;53.244;6.594;2024-01-15T14:11:29;7.15;;;1.83;;
52432;SDS011;38352;53.244;6.594;2024-01-15T14:13:56;6.65;;;1.67;;
52432;SDS011;38352;53.244;6.594;2024-01-15T14:16:22;10.57;;;2.10;;
52432;SDS011;38352;53.244;6.594;2024-01-15T14:18:48;6.78;;;1.63;;
52432;SDS011;38352;53.244;6.594;2024-01-15T14:21:14;3.58;;;1.10;;
52432;SDS011;38352;53.244;6.594;2024-01-15T14:23:40;4.75;;;1.23;;
52432;SDS011;38352;53.244;6.594;2024-01-15T14:26:06;5.60;;;1.70;;
52432;SDS011;38352;53.244;6.594;2024-01-15T14:28:32;5.05;;;1.75;;
52432;SDS011;38352;53.244;6.594;2024-01-15T14:30:58;5.72;;;1.20;;
52432;SDS011;38352;53.244;6.594;2024-01-15T14:33:25;3.80;;;1.20;;
52432;SDS011;38352;53.244;6.594;2024-01-15T14:35:52;10.98;;;1.48;;
52432;SDS011;38352;53.244;6.594;2024-01-15T14:38:18;3.60;;;1.20;;
52432;SDS011;38352;53.244;6.594;2024-01-15T14:40:44;7.00;;;1.15;;
52432;SDS011;38352;53.244;6.594;2024-01-15T14:43:10;10.93;;;1.98;;
52432;SDS011;38352;53.244;6.594;2024-01-15T14:45:36;9.93;;;2.33;;
52432;SDS011;38352;53.244;6.594;2024-01-15T14:48:02;7.80;;;1.83;;